createdAt,value
2017-08-04T00:00:03.265Z,-64
2017-08-04T00:01:25.003Z,-64
2017-08-04T00:02:46.711Z,-64
2017-08-04T00:04:08.426Z,-64
2017-08-04T00:05:30.649Z,-64
2017-08-04T00:06:52.381Z,-62
2017-08-04T00:08:14.122Z,-64
2017-08-04T00:09:35.882Z,-64
2017-08-04T00:10:58.046Z,-62
2017-08-04T00:12:19.769Z,-62
2017-08-04T00:13:41.482Z,-62
2017-08-04T00:15:03.221Z,-64
2017-08-04T00:16:25.426Z,-64
2017-08-04T00:17:47.165Z,-62
2017-08-04T00:19:08.885Z,-64
2017-08-04T00:20:30.639Z,-62
2017-08-04T00:21:52.864Z,-62
2017-08-04T00:23:14.624Z,-64
2017-08-04T00:24:36.344Z,-64
2017-08-04T00:25:58.066Z,-64
2017-08-04T00:27:20.323Z,-62
2017-08-04T00:28:42.049Z,-62
2017-08-04T00:30:03.805Z,-62
2017-08-04T00:31:25.524Z,-64
2017-08-04T00:32:47.784Z,-62
2017-08-04T00:34:09.466Z,-62
2017-08-04T00:35:31.166Z,-64
2017-08-04T00:36:52.906Z,-62
2017-08-04T00:38:15.181Z,-62
2017-08-04T00:39:36.920Z,-64
2017-08-04T00:40:58.660Z,-62
2017-08-04T00:42:20.363Z,-64
2017-08-04T00:43:42.646Z,-62
2017-08-04T00:45:04.384Z,-64
2017-08-04T00:46:26.086Z,-64
2017-08-04T00:47:47.819Z,-64
2017-08-04T00:49:10.086Z,-62
2017-08-04T00:50:31.761Z,-64
2017-08-04T00:51:53.504Z,-64
2017-08-04T00:53:15.178Z,-64
2017-08-04T00:54:37.386Z,-62
2017-08-04T00:55:59.062Z,-64
2017-08-04T00:57:20.791Z,-62
2017-08-04T00:58:42.607Z,-62
2017-08-04T01:00:04.823Z,-64
2017-08-04T01:01:26.568Z,-62
2017-08-04T01:02:48.303Z,-64
2017-08-04T01:04:10.006Z,-64
2017-08-04T01:05:32.207Z,-62
2017-08-04T01:06:53.888Z,-64
2017-08-04T01:08:15.621Z,-64
2017-08-04T01:09:37.461Z,-62
2017-08-04T01:10:59.683Z,-64
2017-08-04T01:12:21.407Z,-64
2017-08-04T01:13:43.160Z,-62
2017-08-04T01:15:04.881Z,-62
2017-08-04T01:16:27.103Z,-62
2017-08-04T01:17:49.286Z,-64
2017-08-04T01:19:11.026Z,-62
2017-08-04T01:20:32.805Z,-64
2017-08-04T01:21:55.000Z,-62
2017-08-04T01:23:16.739Z,-64
2017-08-04T01:24:38.501Z,-64
2017-08-04T01:26:00.166Z,-62
2017-08-04T01:27:22.364Z,-62
2017-08-04T01:28:44.126Z,-62
2017-08-04T01:30:05.961Z,-62
2017-08-04T01:31:27.708Z,-62
2017-08-04T01:32:49.943Z,-62
2017-08-04T01:34:11.664Z,-64
2017-08-04T01:35:33.379Z,-64
2017-08-04T01:36:55.101Z,-62
2017-08-04T01:38:17.284Z,-62
2017-08-04T01:39:39.028Z,-64
2017-08-04T01:41:00.819Z,-64
2017-08-04T01:42:22.581Z,-64
2017-08-04T01:43:44.782Z,-62
2017-08-04T01:45:06.521Z,-62
2017-08-04T01:46:28.222Z,-62
2017-08-04T01:47:49.940Z,-64
2017-08-04T01:49:12.164Z,-64
2017-08-04T01:50:33.943Z,-62
2017-08-04T01:51:55.650Z,-62
2017-08-04T01:53:17.364Z,-64
2017-08-04T01:54:39.561Z,-62
2017-08-04T01:56:01.286Z,-64
2017-08-04T01:57:22.963Z,-64
2017-08-04T01:58:44.710Z,-62
2017-08-04T02:00:06.865Z,-64
2017-08-04T02:01:28.667Z,-62
2017-08-04T02:02:50.424Z,-64
2017-08-04T02:04:12.167Z,-62
2017-08-04T02:05:34.383Z,-62
2017-08-04T02:06:56.122Z,-64
2017-08-04T02:08:17.849Z,-64
2017-08-04T02:09:39.621Z,-62
2017-08-04T02:11:01.965Z,-64
2017-08-04T02:12:23.734Z,-62
2017-08-04T02:13:45.465Z,-62
2017-08-04T02:15:11.743Z,-62
2017-08-04T02:16:34.119Z,-64
2017-08-04T02:17:55.863Z,-64
2017-08-04T02:19:17.606Z,-62
2017-08-04T02:20:39.385Z,-64
2017-08-04T02:22:01.543Z,-62
2017-08-04T02:23:23.268Z,-64
2017-08-04T02:24:45.005Z,-62
2017-08-04T02:26:06.706Z,-62
2017-08-04T02:27:28.883Z,-62
2017-08-04T02:28:50.658Z,-62
2017-08-04T02:30:12.384Z,-64
2017-08-04T02:31:34.120Z,-62
2017-08-04T02:32:59.142Z,-62
2017-08-04T02:34:20.902Z,-64
2017-08-04T02:35:42.983Z,-62
2017-08-04T02:37:04.724Z,-64
2017-08-04T02:38:26.980Z,-62
2017-08-04T02:39:48.763Z,-62
2017-08-04T02:41:10.483Z,-62
2017-08-04T02:42:32.201Z,-64
2017-08-04T02:43:54.427Z,-62
2017-08-04T02:45:16.124Z,-64
2017-08-04T02:46:37.865Z,-64
2017-08-04T02:47:59.602Z,-62
2017-08-04T02:49:21.764Z,-62
2017-08-04T02:50:43.506Z,-62
2017-08-04T02:52:05.243Z,-62
2017-08-04T02:53:27.069Z,-62
2017-08-04T02:54:49.240Z,-64
2017-08-04T02:56:10.942Z,-62
2017-08-04T02:57:32.621Z,-62
2017-08-04T02:58:54.341Z,-64
2017-08-04T03:00:16.520Z,-62
2017-08-04T03:01:38.266Z,-64
2017-08-04T03:03:00.020Z,-62
2017-08-04T03:04:21.784Z,-62
2017-08-04T03:05:44.024Z,-62
2017-08-04T03:07:05.729Z,-64
2017-08-04T03:08:27.461Z,-62
2017-08-04T03:09:49.157Z,-62
2017-08-04T03:11:11.348Z,-64
2017-08-04T03:12:33.106Z,-64
2017-08-04T03:13:55.324Z,-64
2017-08-04T03:15:17.045Z,-62
2017-08-04T03:16:39.265Z,-62
2017-08-04T03:18:01.001Z,-62
2017-08-04T03:19:22.846Z,-62
2017-08-04T03:20:44.607Z,-64
2017-08-04T03:22:06.818Z,-62
2017-08-04T03:23:28.523Z,-62
2017-08-04T03:24:50.482Z,-64
2017-08-04T03:26:12.407Z,-62
2017-08-04T03:27:34.606Z,-64
2017-08-04T03:28:56.304Z,-64
2017-08-04T03:30:17.985Z,-62
2017-08-04T03:31:39.743Z,-62
2017-08-04T03:33:01.946Z,-62
2017-08-04T03:34:23.886Z,-62
2017-08-04T03:35:46.069Z,-62
2017-08-04T03:37:07.772Z,-64
2017-08-04T03:38:29.983Z,-62
2017-08-04T03:39:51.744Z,-64
2017-08-04T03:41:13.483Z,-64
2017-08-04T03:42:35.241Z,-64
2017-08-04T03:43:57.454Z,-64
2017-08-04T03:45:19.418Z,-64
2017-08-04T03:46:41.143Z,-64
2017-08-04T03:48:02.864Z,-64
2017-08-04T03:49:25.083Z,-62
2017-08-04T03:50:47.015Z,-62
2017-08-04T03:52:08.744Z,-64
2017-08-04T03:53:30.485Z,-62
2017-08-04T03:54:52.705Z,-64
2017-08-04T03:56:14.445Z,-64
2017-08-04T03:57:36.159Z,-62
2017-08-04T03:58:57.917Z,-62
2017-08-04T04:00:21.924Z,-62
2017-08-04T04:01:43.882Z,-64
2017-08-04T04:03:05.604Z,-62
2017-08-04T04:04:27.320Z,-62
2017-08-04T04:05:49.510Z,-64
2017-08-04T04:07:11.183Z,-62
2017-08-04T04:08:32.885Z,-64
2017-08-04T04:09:54.565Z,-62
2017-08-04T04:11:16.805Z,-62
2017-08-04T04:12:38.605Z,-62
2017-08-04T04:14:00.352Z,-64
2017-08-04T04:15:22.226Z,-62
2017-08-04T04:16:44.468Z,-62
2017-08-04T04:18:06.129Z,-64
2017-08-04T04:19:27.827Z,-64
2017-08-04T04:20:49.888Z,-62
2017-08-04T04:22:12.169Z,-64
2017-08-04T04:23:33.862Z,-62
2017-08-04T04:24:56.008Z,-62
2017-08-04T04:26:17.748Z,-62
2017-08-04T04:27:42.880Z,-62
2017-08-04T04:29:04.944Z,-62
2017-08-04T04:30:26.599Z,-62
2017-08-04T04:31:48.691Z,-62
2017-08-04T04:33:11.224Z,-62
2017-08-04T04:34:32.989Z,-64
2017-08-04T04:35:54.822Z,-62
2017-08-04T04:37:16.543Z,-62
2017-08-04T04:38:38.769Z,-62
2017-08-04T04:40:00.502Z,-64
2017-08-04T04:41:22.203Z,-62
2017-08-04T04:42:43.924Z,-62
2017-08-04T04:44:06.200Z,-62
2017-08-04T04:45:27.923Z,-62
2017-08-04T04:46:49.647Z,-62
2017-08-04T04:48:11.368Z,-62
2017-08-04T04:49:33.606Z,-62
2017-08-04T04:50:55.347Z,-62
2017-08-04T04:52:17.102Z,-62
2017-08-04T04:53:39.285Z,-62
2017-08-04T04:55:02.127Z,-62
2017-08-04T04:56:23.909Z,-62
2017-08-04T04:57:45.643Z,-62
2017-08-04T04:59:07.887Z,-62
2017-08-04T05:00:30.169Z,-62
2017-08-04T05:01:51.949Z,-60
2017-08-04T05:03:13.622Z,-62
2017-08-04T05:04:35.306Z,-62
2017-08-04T05:05:57.587Z,-62
2017-08-04T05:07:19.359Z,-62
2017-08-04T05:08:41.189Z,-62
2017-08-04T05:10:02.925Z,-62
2017-08-04T05:11:25.272Z,-62
2017-08-04T05:12:46.981Z,-64
2017-08-04T05:14:08.701Z,-62
2017-08-04T05:15:30.827Z,-64
2017-08-04T05:16:53.166Z,-62
2017-08-04T05:18:15.004Z,-62
2017-08-04T05:19:36.728Z,-62
2017-08-04T05:20:58.464Z,-64
2017-08-04T05:22:20.729Z,-62
2017-08-04T05:23:42.487Z,-62
2017-08-04T05:25:04.228Z,-64
2017-08-04T05:26:26.065Z,-64
2017-08-04T05:27:48.306Z,-64
2017-08-04T05:29:10.009Z,-62
2017-08-04T05:30:32.018Z,-62
2017-08-04T05:31:53.769Z,-62
2017-08-04T05:33:16.101Z,-64
2017-08-04T05:34:37.852Z,-64
2017-08-04T05:35:59.678Z,-62
2017-08-04T05:37:21.406Z,-62
2017-08-04T05:38:43.724Z,-62
2017-08-04T05:40:05.579Z,-64
2017-08-04T05:41:27.645Z,-62
2017-08-04T05:42:49.409Z,-62
2017-08-04T05:44:11.655Z,-62
2017-08-04T05:45:33.565Z,-62
2017-08-04T05:46:55.231Z,-62
2017-08-04T05:48:16.939Z,-64
2017-08-04T05:49:39.191Z,-62
2017-08-04T05:51:00.895Z,-62
2017-08-04T05:52:22.674Z,-62
2017-08-04T05:53:44.722Z,-64
2017-08-04T05:55:06.949Z,-64
2017-08-04T05:56:28.748Z,-62
2017-08-04T05:57:50.784Z,-64
2017-08-04T05:59:12.525Z,-62
2017-08-04T06:00:34.762Z,-62
2017-08-04T06:01:57.852Z,-62
2017-08-04T06:03:19.647Z,-64
2017-08-04T06:04:41.444Z,-62
2017-08-04T06:06:03.730Z,-62
2017-08-04T06:07:25.462Z,-64
2017-08-04T06:08:47.168Z,-64
2017-08-04T06:10:09.171Z,-62
2017-08-04T06:11:31.448Z,-62
2017-08-04T06:12:53.223Z,-62
2017-08-04T06:14:15.029Z,-62
2017-08-04T06:15:36.786Z,-62
2017-08-04T06:16:59.408Z,-62
2017-08-04T06:18:21.166Z,-64
2017-08-04T06:19:42.863Z,-64
2017-08-04T06:21:05.005Z,-62
2017-08-04T06:22:27.242Z,-62
2017-08-04T06:23:49.046Z,-64
2017-08-04T06:25:10.786Z,-64
2017-08-04T06:26:32.532Z,-62
2017-08-04T06:27:55.005Z,-62
2017-08-04T06:29:16.820Z,-62
2017-08-04T06:30:38.563Z,-64
2017-08-04T06:32:00.787Z,-62
2017-08-04T06:33:23.084Z,-62
2017-08-04T06:34:44.849Z,-62
2017-08-04T06:36:06.667Z,-62
2017-08-04T06:37:28.449Z,-62
2017-08-04T06:38:50.761Z,-62
2017-08-04T06:40:15.903Z,-62
2017-08-04T06:41:37.604Z,-64
2017-08-04T06:42:59.363Z,-62
2017-08-04T06:44:21.588Z,-62
2017-08-04T06:45:43.282Z,-62
2017-08-04T06:47:05.054Z,-62
2017-08-04T06:48:26.827Z,-62
2017-08-04T06:49:49.086Z,-62
2017-08-04T06:51:10.964Z,-64
2017-08-04T06:52:32.729Z,-62
2017-08-04T06:53:54.449Z,-62
2017-08-04T06:55:16.779Z,-62
2017-08-04T06:58:04.847Z,-62
2017-08-04T06:59:27.186Z,-62
2017-08-04T07:00:49.492Z,-62
2017-08-04T07:02:11.823Z,-62
2017-08-04T07:03:34.868Z,-62
2017-08-04T07:04:56.641Z,-62
2017-08-04T07:06:19.110Z,-62
2017-08-04T07:07:40.926Z,-62
2017-08-04T07:09:02.882Z,-68
2017-08-04T07:10:24.689Z,-68
2017-08-04T07:11:47.266Z,-66
2017-08-04T07:13:09.342Z,-70
2017-08-04T07:14:31.223Z,-70
2017-08-04T07:15:53.583Z,-68
2017-08-04T07:17:17.406Z,-70
2017-08-04T07:18:39.270Z,-68
2017-08-04T07:20:01.185Z,-68
2017-08-04T07:21:23.324Z,-68
2017-08-04T07:22:45.769Z,-68
2017-08-04T07:24:07.929Z,-68
2017-08-04T07:25:29.709Z,-68
2017-08-04T07:26:51.452Z,-70
2017-08-04T07:28:13.860Z,-68
2017-08-04T07:29:35.702Z,-70
2017-08-04T07:30:57.658Z,-68
2017-08-04T07:32:19.824Z,-68
2017-08-04T07:33:42.606Z,-68
2017-08-04T07:35:05.199Z,-68
2017-08-04T07:36:27.314Z,-68
2017-08-04T07:37:49.471Z,-68
2017-08-04T07:39:12.227Z,-68
2017-08-04T07:40:34.410Z,-68
2017-08-04T07:41:56.831Z,-70
2017-08-04T07:43:18.608Z,-70
2017-08-04T07:44:40.831Z,-68
2017-08-04T07:46:02.626Z,-68
2017-08-04T07:47:24.472Z,-68
2017-08-04T07:48:46.992Z,-68
2017-08-04T07:50:09.511Z,-68
2017-08-04T07:51:31.769Z,-68
2017-08-04T07:52:53.848Z,-68
2017-08-04T07:54:15.928Z,-70
2017-08-04T07:55:38.473Z,-68
2017-08-04T07:57:00.849Z,-68
2017-08-04T07:58:22.646Z,-72
2017-08-04T07:59:44.910Z,-68
2017-08-04T08:01:07.782Z,-68
2017-08-04T08:02:30.411Z,-68
2017-08-04T08:03:52.469Z,-70
2017-08-04T08:05:14.993Z,-68
2017-08-04T08:06:37.816Z,-68
2017-08-04T08:07:59.879Z,-68
2017-08-04T08:09:21.697Z,-70
2017-08-04T08:10:43.943Z,-70
2017-08-04T08:12:06.355Z,-68
2017-08-04T08:13:29.064Z,-68
2017-08-04T08:14:51.344Z,-68
2017-08-04T08:16:13.278Z,-70
2017-08-04T08:17:36.152Z,-70
2017-08-04T08:18:58.321Z,-68
2017-08-04T08:20:22.163Z,-70
2017-08-04T08:21:44.258Z,-70
2017-08-04T08:23:06.704Z,-70
2017-08-04T08:24:28.482Z,-68
2017-08-04T08:25:50.743Z,-68
2017-08-04T08:27:12.715Z,-70
2017-08-04T08:28:35.645Z,-70
2017-08-04T08:29:58.501Z,-68
2017-08-04T08:31:20.642Z,-68
2017-08-04T08:32:42.447Z,-68
2017-08-04T08:34:05.283Z,-66
2017-08-04T08:35:27.406Z,-68
2017-08-04T08:36:49.170Z,-68
2017-08-04T08:38:11.132Z,-70
2017-08-04T08:39:34.071Z,-68
2017-08-04T08:40:57.016Z,-68
2017-08-04T08:42:19.389Z,-68
2017-08-04T08:43:41.250Z,-70
2017-08-04T08:45:03.695Z,-70
2017-08-04T08:46:25.994Z,-70
2017-08-04T08:47:48.335Z,-68
2017-08-04T08:49:10.759Z,-68
2017-08-04T08:50:33.657Z,-68
2017-08-04T08:51:55.699Z,-70
2017-08-04T08:53:17.717Z,-68
2017-08-04T08:54:40.081Z,-68
2017-08-04T08:56:02.809Z,-70
2017-08-04T08:57:25.569Z,-70
2017-08-04T08:58:48.028Z,-66
2017-08-04T09:00:09.990Z,-68
2017-08-04T09:01:32.517Z,-70
2017-08-04T09:02:55.022Z,-72
2017-08-04T09:04:17.192Z,-70
2017-08-04T09:05:39.273Z,-70
2017-08-04T09:07:01.790Z,-70
2017-08-04T09:08:24.052Z,-70
2017-08-04T09:09:46.430Z,-68
2017-08-04T09:11:08.308Z,-70
2017-08-04T09:12:33.483Z,-70
2017-08-04T09:13:55.555Z,-70
2017-08-04T09:15:17.482Z,-70
2017-08-04T09:16:40.209Z,-68
2017-08-04T09:18:03.186Z,-68
2017-08-04T09:19:25.237Z,-68
2017-08-04T09:20:47.323Z,-68
2017-08-04T09:22:10.146Z,-70
2017-08-04T09:23:32.648Z,-68
2017-08-04T09:24:54.569Z,-70
2017-08-04T09:26:16.847Z,-68
2017-08-04T09:27:39.070Z,-68
2017-08-04T09:29:01.406Z,-68
2017-08-04T09:30:23.532Z,-70
2017-08-04T09:31:45.696Z,-68
2017-08-04T09:33:07.735Z,-70
2017-08-04T09:34:30.312Z,-68
2017-08-04T09:35:52.318Z,-68
2017-08-04T09:37:14.257Z,-70
2017-08-04T09:38:36.393Z,-70
2017-08-04T09:39:59.199Z,-70
2017-08-04T09:41:21.095Z,-70
2017-08-04T09:42:43.078Z,-68
2017-08-04T09:44:05.120Z,-70
2017-08-04T09:45:27.617Z,-68
2017-08-04T09:46:49.657Z,-68
2017-08-04T09:48:11.696Z,-68
2017-08-04T09:49:33.840Z,-70
2017-08-04T09:50:56.860Z,-68
2017-08-04T09:52:18.917Z,-70
2017-08-04T09:53:40.824Z,-68
2017-08-04T09:55:02.890Z,-70
2017-08-04T09:56:25.798Z,-68
2017-08-04T09:57:48.601Z,-70
2017-08-04T09:59:11.402Z,-70
2017-08-04T10:00:34.272Z,-70
2017-08-04T10:01:57.285Z,-70
2017-08-04T10:03:20.766Z,-70
2017-08-04T11:21:32.214Z,-70
2017-08-04T11:22:34.676Z,-72
2017-08-04T11:23:37.093Z,-66
2017-08-04T11:24:39.197Z,-74
2017-08-04T11:25:41.333Z,-74
2017-08-04T11:26:44.059Z,-76
2017-08-04T11:27:46.619Z,-76
2017-08-04T11:28:48.684Z,-76
2017-08-04T11:29:50.857Z,-80
2017-08-04T11:30:53.780Z,-68
